sensor_id;sensor_type;location;lat;lon;timestamp;P1;durP1;ratioP1;P2;durP2;ratioP2
11747;SDS011;5931;48.832;9.072;2023-08-20T00:00:39;13.17;;;7.77;;
11747;SDS011;5931;48.832;9.072;2023-08-20T00:03:13;11.67;;;7.67;;
11747;SDS011;5931;48.832;9.072;2023-08-20T00:05:39;13.50;;;8.43;;
11747;SDS011;5931;48.832;9.072;2023-08-20T00:08:06;10.07;;;7.30;;
11747;SDS011;5931;48.832;9.072;2023-08-20T00:10:31;11.27;;;8.50;;
11747;SDS011;5931;48.832;9.072;2023-08-20T00:12:57;11.70;;;7.70;;
11747;SDS011;5931;48.832;9.072;2023-08-20T00:15:23;13.13;;;7.60;;
11747;SDS011;5931;48.832;9.072;2023-08-20T00:17:52;10.83;;;8.43;;
11747;SDS011;5931;48.832;9.072;2023-08-20T00:20:18;9.50;;;7.83;;
11747;SDS011;5931;48.832;9.072;2023-08-20T00:22:45;12.20;;;7.90;;
11747;SDS011;5931;48.832;9.072;2023-08-20T00:25:14;11.53;;;8.00;;
11747;SDS011;5931;48.832;9.072;2023-08-20T00:27:41;12.37;;;8.77;;
11747;SDS011;5931;48.832;9.072;2023-08-20T00:30:08;13.40;;;8.33;;
11747;SDS011;5931;48.832;9.072;2023-08-20T00:32:35;15.43;;;9.57;;
11747;SDS011;5931;48.832;9.072;2023-08-20T00:35:02;12.37;;;9.00;;
11747;SDS011;5931;48.832;9.072;2023-08-20T00:37:28;18.17;;;8.87;;
11747;SDS011;5931;48.832;9.072;2023-08-20T00:39:54;16.50;;;8.07;;
11747;SDS011;5931;48.832;9.072;2023-08-20T00:42:20;11.33;;;8.50;;
11747;SDS011;5931;48.832;9.072;2023-08-20T00:44:46;12.60;;;8.00;;
11747;SDS011;5931;48.832;9.072;2023-08-20T00:47:12;10.00;;;7.63;;
11747;SDS011;5931;48.832;9.072;2023-08-20T00:49:39;9.00;;;7.50;;
11747;SDS011;5931;48.832;9.072;2023-08-20T00:52:06;11.27;;;8.47;;
11747;SDS011;5931;48.832;9.072;2023-08-20T00:54:36;13.13;;;8.33;;
11747;SDS011;5931;48.832;9.072;2023-08-20T00:57:04;9.07;;;7.50;;
11747;SDS011;5931;48.832;9.072;2023-08-20T00:59:31;10.57;;;8.50;;
11747;SDS011;5931;48.832;9.072;2023-08-20T01:01:58;10.57;;;8.47;;
11747;SDS011;5931;48.832;9.072;2023-08-20T01:04:24;12.60;;;8.90;;
11747;SDS011;5931;48.832;9.072;2023-08-20T01:12:29;11.47;;;9.10;;
11747;SDS011;5931;48.832;9.072;2023-08-20T01:14:56;9.70;;;7.30;;
11747;SDS011;5931;48.832;9.072;2023-08-20T01:17:21;10.20;;;7.20;;
11747;SDS011;5931;48.832;9.072;2023-08-20T01:19:47;13.17;;;8.67;;
11747;SDS011;5931;48.832;9.072;2023-08-20T01:28:26;10.50;;;7.90;;
11747;SDS011;5931;48.832;9.072;2023-08-20T01:30:54;10.73;;;8.40;;
11747;SDS011;5931;48.832;9.072;2023-08-20T01:33:22;13.43;;;9.60;;
11747;SDS011;5931;48.832;9.072;2023-08-20T01:35:51;11.77;;;8.03;;
11747;SDS011;5931;48.832;9.072;2023-08-20T01:38:17;13.13;;;8.77;;
11747;SDS011;5931;48.832;9.072;2023-08-20T01:40:43;12.90;;;8.90;;
11747;SDS011;5931;48.832;9.072;2023-08-20T01:43:10;12.63;;;8.60;;
11747;SDS011;5931;48.832;9.072;2023-08-20T01:45:37;13.00;;;8.50;;
11747;SDS011;5931;48.832;9.072;2023-08-20T01:48:02;12.70;;;9.03;;
11747;SDS011;5931;48.832;9.072;2023-08-20T01:50:34;10.37;;;7.70;;
11747;SDS011;5931;48.832;9.072;2023-08-20T01:53:00;10.73;;;7.80;;
11747;SDS011;5931;48.832;9.072;2023-08-20T01:55:28;9.30;;;7.90;;
11747;SDS011;5931;48.832;9.072;2023-08-20T01:57:54;9.23;;;7.13;;
11747;SDS011;5931;48.832;9.072;2023-08-20T02:00:19;12.50;;;9.20;;
11747;SDS011;5931;48.832;9.072;2023-08-20T02:02:45;11.20;;;7.97;;
11747;SDS011;5931;48.832;9.072;2023-08-20T02:05:11;12.07;;;8.53;;
11747;SDS011;5931;48.832;9.072;2023-08-20T02:07:37;12.83;;;8.97;;
11747;SDS011;5931;48.832;9.072;2023-08-20T02:10:03;13.70;;;8.40;;
11747;SDS011;5931;48.832;9.072;2023-08-20T02:12:30;11.63;;;8.10;;
11747;SDS011;5931;48.832;9.072;2023-08-20T02:14:56;11.33;;;8.70;;
11747;SDS011;5931;48.832;9.072;2023-08-20T02:17:22;13.43;;;8.70;;
11747;SDS011;5931;48.832;9.072;2023-08-20T02:19:48;11.43;;;8.37;;
11747;SDS011;5931;48.832;9.072;2023-08-20T02:22:14;13.20;;;8.50;;
11747;SDS011;5931;48.832;9.072;2023-08-20T02:24:40;12.00;;;9.03;;
11747;SDS011;5931;48.832;9.072;2023-08-20T02:27:07;12.90;;;8.90;;
11747;SDS011;5931;48.832;9.072;2023-08-20T02:29:32;12.60;;;8.47;;
11747;SDS011;5931;48.832;9.072;2023-08-20T02:31:58;18.60;;;9.47;;
11747;SDS011;5931;48.832;9.072;2023-08-20T02:34:24;13.17;;;8.60;;
11747;SDS011;5931;48.832;9.072;2023-08-20T02:36:49;14.33;;;9.27;;
11747;SDS011;5931;48.832;9.072;2023-08-20T02:39:15;12.13;;;7.90;;
11747;SDS011;5931;48.832;9.072;2023-08-20T02:41:42;13.57;;;9.00;;
11747;SDS011;5931;48.832;9.072;2023-08-20T02:44:08;11.00;;;8.43;;
11747;SDS011;5931;48.832;9.072;2023-08-20T02:46:34;12.97;;;9.17;;
11747;SDS011;5931;48.832;9.072;2023-08-20T02:48:59;11.10;;;8.37;;
11747;SDS011;5931;48.832;9.072;2023-08-20T02:51:26;13.30;;;8.40;;
11747;SDS011;5931;48.832;9.072;2023-08-20T02:53:52;15.73;;;9.00;;
11747;SDS011;5931;48.832;9.072;2023-08-20T02:56:18;12.30;;;8.53;;
11747;SDS011;5931;48.832;9.072;2023-08-20T02:58:44;14.10;;;9.80;;
11747;SDS011;5931;48.832;9.072;2023-08-20T03:01:19;21.27;;;10.47;;
11747;SDS011;5931;48.832;9.072;2023-08-20T03:03:46;13.67;;;9.00;;
11747;SDS011;5931;48.832;9.072;2023-08-20T03:06:12;11.60;;;8.30;;
11747;SDS011;5931;48.832;9.072;2023-08-20T03:08:38;10.20;;;8.07;;
11747;SDS011;5931;48.832;9.072;2023-08-20T03:11:04;13.43;;;8.83;;
11747;SDS011;5931;48.832;9.072;2023-08-20T03:13:30;14.20;;;9.77;;
11747;SDS011;5931;48.832;9.072;2023-08-20T03:15:55;11.90;;;8.90;;
11747;SDS011;5931;48.832;9.072;2023-08-20T03:18:21;12.47;;;8.87;;
11747;SDS011;5931;48.832;9.072;2023-08-20T03:20:47;12.20;;;9.40;;
11747;SDS011;5931;48.832;9.072;2023-08-20T03:23:12;12.47;;;9.50;;
11747;SDS011;5931;48.832;9.072;2023-08-20T03:25:38;15.43;;;10.03;;
11747;SDS011;5931;48.832;9.072;2023-08-20T03:28:04;11.60;;;9.23;;
11747;SDS011;5931;48.832;9.072;2023-08-20T03:30:31;13.33;;;10.33;;
11747;SDS011;5931;48.832;9.072;2023-08-20T03:32:56;11.43;;;7.83;;
11747;SDS011;5931;48.832;9.072;2023-08-20T03:35:23;17.67;;;10.63;;
11747;SDS011;5931;48.832;9.072;2023-08-20T03:37:49;12.23;;;8.97;;
11747;SDS011;5931;48.832;9.072;2023-08-20T03:40:14;13.33;;;9.63;;
11747;SDS011;5931;48.832;9.072;2023-08-20T03:42:41;13.90;;;9.00;;
11747;SDS011;5931;48.832;9.072;2023-08-20T03:45:08;13.13;;;8.87;;
11747;SDS011;5931;48.832;9.072;2023-08-20T03:47:34;13.83;;;8.60;;
11747;SDS011;5931;48.832;9.072;2023-08-20T03:50:01;14.53;;;9.17;;
11747;SDS011;5931;48.832;9.072;2023-08-20T03:52:27;11.93;;;8.53;;
11747;SDS011;5931;48.832;9.072;2023-08-20T03:54:53;17.93;;;10.13;;
11747;SDS011;5931;48.832;9.072;2023-08-20T03:57:19;15.50;;;10.60;;
11747;SDS011;5931;48.832;9.072;2023-08-20T03:59:44;11.67;;;8.50;;
11747;SDS011;5931;48.832;9.072;2023-08-20T04:02:12;14.27;;;8.60;;
11747;SDS011;5931;48.832;9.072;2023-08-20T04:04:39;13.87;;;8.97;;
11747;SDS011;5931;48.832;9.072;2023-08-20T04:07:04;14.50;;;9.77;;
11747;SDS011;5931;48.832;9.072;2023-08-20T04:09:32;12.80;;;8.70;;
11747;SDS011;5931;48.832;9.072;2023-08-20T04:11:58;11.50;;;8.30;;
11747;SDS011;5931;48.832;9.072;2023-08-20T04:14:24;14.53;;;8.93;;
11747;SDS011;5931;48.832;9.072;2023-08-20T04:16:51;13.63;;;10.07;;
11747;SDS011;5931;48.832;9.072;2023-08-20T04:19:17;13.23;;;9.17;;
11747;SDS011;5931;48.832;9.072;2023-08-20T04:21:43;12.40;;;8.03;;
11747;SDS011;5931;48.832;9.072;2023-08-20T04:24:10;18.50;;;9.57;;
11747;SDS011;5931;48.832;9.072;2023-08-20T04:26:35;17.97;;;10.10;;
11747;SDS011;5931;48.832;9.072;2023-08-20T04:29:01;13.23;;;9.33;;
11747;SDS011;5931;48.832;9.072;2023-08-20T04:31:27;13.47;;;9.67;;
11747;SDS011;5931;48.832;9.072;2023-08-20T04:34:00;15.40;;;10.00;;
11747;SDS011;5931;48.832;9.072;2023-08-20T04:36:46;10.37;;;9.10;;
11747;SDS011;5931;48.832;9.072;2023-08-20T04:39:13;12.33;;;8.93;;
11747;SDS011;5931;48.832;9.072;2023-08-20T04:41:43;13.10;;;9.33;;
11747;SDS011;5931;48.832;9.072;2023-08-20T04:44:13;12.37;;;8.47;;
11747;SDS011;5931;48.832;9.072;2023-08-20T04:46:40;12.00;;;8.70;;
11747;SDS011;5931;48.832;9.072;2023-08-20T04:49:07;14.00;;;9.90;;
11747;SDS011;5931;48.832;9.072;2023-08-20T04:51:33;11.63;;;9.67;;
11747;SDS011;5931;48.832;9.072;2023-08-20T04:53:58;13.90;;;10.17;;
11747;SDS011;5931;48.832;9.072;2023-08-20T04:56:24;12.17;;;9.10;;
11747;SDS011;5931;48.832;9.072;2023-08-20T04:58:52;14.20;;;10.00;;
11747;SDS011;5931;48.832;9.072;2023-08-20T05:01:38;14.67;;;9.93;;
11747;SDS011;5931;48.832;9.072;2023-08-20T05:04:04;18.07;;;9.70;;
11747;SDS011;5931;48.832;9.072;2023-08-20T05:06:30;17.73;;;9.50;;
11747;SDS011;5931;48.832;9.072;2023-08-20T05:08:56;14.50;;;9.87;;
11747;SDS011;5931;48.832;9.072;2023-08-20T05:11:21;14.80;;;8.80;;
11747;SDS011;5931;48.832;9.072;2023-08-20T05:13:49;14.03;;;9.73;;
11747;SDS011;5931;48.832;9.072;2023-08-20T05:16:15;14.80;;;10.40;;
11747;SDS011;5931;48.832;9.072;2023-08-20T05:18:41;18.00;;;9.90;;
11747;SDS011;5931;48.832;9.072;2023-08-20T05:21:07;12.80;;;9.50;;
11747;SDS011;5931;48.832;9.072;2023-08-20T05:23:32;14.73;;;10.73;;
11747;SDS011;5931;48.832;9.072;2023-08-20T05:25:58;13.30;;;9.43;;
11747;SDS011;5931;48.832;9.072;2023-08-20T05:28:24;15.17;;;10.37;;
11747;SDS011;5931;48.832;9.072;2023-08-20T05:30:56;13.00;;;9.13;;
11747;SDS011;5931;48.832;9.072;2023-08-20T05:33:22;12.60;;;9.00;;
11747;SDS011;5931;48.832;9.072;2023-08-20T05:35:48;13.37;;;9.20;;
11747;SDS011;5931;48.832;9.072;2023-08-20T05:38:14;17.47;;;9.90;;
11747;SDS011;5931;48.832;9.072;2023-08-20T05:40:40;13.33;;;9.43;;
11747;SDS011;5931;48.832;9.072;2023-08-20T05:43:06;11.50;;;8.70;;
11747;SDS011;5931;48.832;9.072;2023-08-20T05:45:32;14.70;;;8.10;;
11747;SDS011;5931;48.832;9.072;2023-08-20T05:47:59;13.70;;;9.20;;
11747;SDS011;5931;48.832;9.072;2023-08-20T05:50:24;11.63;;;8.67;;
11747;SDS011;5931;48.832;9.072;2023-08-20T05:52:50;12.50;;;8.17;;
11747;SDS011;5931;48.832;9.072;2023-08-20T05:55:17;13.90;;;9.40;;
11747;SDS011;5931;48.832;9.072;2023-08-20T05:57:42;14.53;;;9.43;;
11747;SDS011;5931;48.832;9.072;2023-08-20T06:00:10;18.93;;;10.13;;
11747;SDS011;5931;48.832;9.072;2023-08-20T06:02:39;15.27;;;9.57;;
11747;SDS011;5931;48.832;9.072;2023-08-20T06:05:05;12.50;;;9.37;;
11747;SDS011;5931;48.832;9.072;2023-08-20T06:07:31;9.90;;;8.03;;
11747;SDS011;5931;48.832;9.072;2023-08-20T06:09:56;11.57;;;8.23;;
11747;SDS011;5931;48.832;9.072;2023-08-20T06:12:22;13.60;;;9.20;;
11747;SDS011;5931;48.832;9.072;2023-08-20T06:14:48;12.87;;;7.40;;
11747;SDS011;5931;48.832;9.072;2023-08-20T06:17:14;12.00;;;8.50;;
11747;SDS011;5931;48.832;9.072;2023-08-20T06:19:40;10.10;;;8.70;;
11747;SDS011;5931;48.832;9.072;2023-08-20T06:22:05;9.90;;;7.50;;
11747;SDS011;5931;48.832;9.072;2023-08-20T06:24:31;10.20;;;8.20;;
11747;SDS011;5931;48.832;9.072;2023-08-20T06:26:57;11.50;;;7.17;;
11747;SDS011;5931;48.832;9.072;2023-08-20T06:29:22;10.43;;;7.70;;
11747;SDS011;5931;48.832;9.072;2023-08-20T06:31:48;11.10;;;8.80;;
11747;SDS011;5931;48.832;9.072;2023-08-20T06:34:15;10.97;;;7.53;;
11747;SDS011;5931;48.832;9.072;2023-08-20T06:36:41;11.63;;;8.20;;
11747;SDS011;5931;48.832;9.072;2023-08-20T06:39:10;12.07;;;8.50;;
11747;SDS011;5931;48.832;9.072;2023-08-20T06:42:02;10.00;;;8.40;;
11747;SDS011;5931;48.832;9.072;2023-08-20T06:44:29;9.87;;;7.60;;
11747;SDS011;5931;48.832;9.072;2023-08-20T06:46:55;10.90;;;6.77;;
11747;SDS011;5931;48.832;9.072;2023-08-20T06:49:21;12.23;;;8.00;;
11747;SDS011;5931;48.832;9.072;2023-08-20T06:51:47;11.50;;;8.00;;
11747;SDS011;5931;48.832;9.072;2023-08-20T06:54:14;15.03;;;9.03;;
11747;SDS011;5931;48.832;9.072;2023-08-20T06:56:40;11.40;;;7.40;;
11747;SDS011;5931;48.832;9.072;2023-08-20T06:59:06;10.77;;;8.15;;
11747;SDS011;5931;48.832;9.072;2023-08-20T07:01:32;12.57;;;8.80;;
11747;SDS011;5931;48.832;9.072;2023-08-20T07:03:57;9.90;;;7.80;;
11747;SDS011;5931;48.832;9.072;2023-08-20T07:06:23;9.53;;;8.00;;
11747;SDS011;5931;48.832;9.072;2023-08-20T07:08:49;13.43;;;8.40;;
11747;SDS011;5931;48.832;9.072;2023-08-20T07:11:15;13.63;;;9.50;;
11747;SDS011;5931;48.832;9.072;2023-08-20T07:13:41;10.73;;;8.80;;
11747;SDS011;5931;48.832;9.072;2023-08-20T07:16:06;10.13;;;7.77;;
11747;SDS011;5931;48.832;9.072;2023-08-20T07:18:32;11.93;;;8.27;;
11747;SDS011;5931;48.832;9.072;2023-08-20T07:20:58;9.83;;;7.77;;
11747;SDS011;5931;48.832;9.072;2023-08-20T07:23:23;11.70;;;9.33;;
11747;SDS011;5931;48.832;9.072;2023-08-20T07:25:49;11.68;;;8.18;;
11747;SDS011;5931;48.832;9.072;2023-08-20T07:28:17;9.87;;;7.93;;
11747;SDS011;5931;48.832;9.072;2023-08-20T07:30:51;11.80;;;8.87;;
11747;SDS011;5931;48.832;9.072;2023-08-20T07:33:17;14.23;;;8.10;;
11747;SDS011;5931;48.832;9.072;2023-08-20T07:35:43;10.93;;;7.63;;
11747;SDS011;5931;48.832;9.072;2023-08-20T07:38:09;13.57;;;8.70;;
11747;SDS011;5931;48.832;9.072;2023-08-20T07:40:35;9.57;;;8.37;;
11747;SDS011;5931;48.832;9.072;2023-08-20T07:43:01;12.07;;;7.43;;
11747;SDS011;5931;48.832;9.072;2023-08-20T07:45:27;11.60;;;7.80;;
11747;SDS011;5931;48.832;9.072;2023-08-20T07:47:52;10.33;;;8.37;;
11747;SDS011;5931;48.832;9.072;2023-08-20T07:50:18;11.00;;;8.97;;
11747;SDS011;5931;48.832;9.072;2023-08-20T07:52:44;11.37;;;8.53;;
11747;SDS011;5931;48.832;9.072;2023-08-20T07:55:09;13.13;;;9.13;;
11747;SDS011;5931;48.832;9.072;2023-08-20T07:57:35;13.00;;;9.00;;
11747;SDS011;5931;48.832;9.072;2023-08-20T08:00:01;11.93;;;9.23;;
11747;SDS011;5931;48.832;9.072;2023-08-20T08:02:36;12.30;;;8.90;;
11747;SDS011;5931;48.832;9.072;2023-08-20T08:05:02;10.60;;;8.37;;
11747;SDS011;5931;48.832;9.072;2023-08-20T08:07:28;10.40;;;7.77;;
11747;SDS011;5931;48.832;9.072;2023-08-20T08:09:53;13.60;;;7.93;;
11747;SDS011;5931;48.832;9.072;2023-08-20T08:12:19;11.97;;;8.40;;
11747;SDS011;5931;48.832;9.072;2023-08-20T08:14:44;11.27;;;8.33;;
11747;SDS011;5931;48.832;9.072;2023-08-20T08:17:10;14.17;;;9.53;;
11747;SDS011;5931;48.832;9.072;2023-08-20T08:19:36;10.57;;;8.57;;
11747;SDS011;5931;48.832;9.072;2023-08-20T08:22:01;12.77;;;9.17;;
11747;SDS011;5931;48.832;9.072;2023-08-20T08:24:28;12.00;;;8.40;;
11747;SDS011;5931;48.832;9.072;2023-08-20T08:26:54;11.60;;;9.00;;
11747;SDS011;5931;48.832;9.072;2023-08-20T08:29:19;11.73;;;8.93;;
11747;SDS011;5931;48.832;9.072;2023-08-20T08:31:45;13.80;;;8.70;;
11747;SDS011;5931;48.832;9.072;2023-08-20T08:34:13;13.37;;;9.50;;
11747;SDS011;5931;48.832;9.072;2023-08-20T08:36:39;12.30;;;9.53;;
11747;SDS011;5931;48.832;9.072;2023-08-20T08:39:05;10.13;;;8.10;;
11747;SDS011;5931;48.832;9.072;2023-08-20T08:41:32;11.77;;;8.60;;
11747;SDS011;5931;48.832;9.072;2023-08-20T08:44:03;10.97;;;7.80;;
11747;SDS011;5931;48.832;9.072;2023-08-20T08:46:30;10.53;;;7.57;;
11747;SDS011;5931;48.832;9.072;2023-08-20T08:48:56;11.20;;;8.67;;
11747;SDS011;5931;48.832;9.072;2023-08-20T08:51:24;9.30;;;7.40;;
11747;SDS011;5931;48.832;9.072;2023-08-20T08:53:51;11.43;;;7.00;;
11747;SDS011;5931;48.832;9.072;2023-08-20T08:56:18;10.77;;;7.30;;
11747;SDS011;5931;48.832;9.072;2023-08-20T08:58:44;8.40;;;7.10;;
11747;SDS011;5931;48.832;9.072;2023-08-20T09:01:09;10.20;;;7.53;;
11747;SDS011;5931;48.832;9.072;2023-08-20T09:03:35;10.40;;;7.17;;
11747;SDS011;5931;48.832;9.072;2023-08-20T09:06:01;12.10;;;7.43;;
11747;SDS011;5931;48.832;9.072;2023-08-20T09:08:32;10.00;;;7.03;;
11747;SDS011;5931;48.832;9.072;2023-08-20T09:10:59;10.80;;;7.90;;
11747;SDS011;5931;48.832;9.072;2023-08-20T09:13:42;11.87;;;8.10;;
11747;SDS011;5931;48.832;9.072;2023-08-20T09:16:09;9.90;;;7.10;;
11747;SDS011;5931;48.832;9.072;2023-08-20T09:18:44;11.77;;;7.70;;
11747;SDS011;5931;48.832;9.072;2023-08-20T09:21:11;8.70;;;6.17;;
11747;SDS011;5931;48.832;9.072;2023-08-20T09:23:38;7.87;;;5.87;;
11747;SDS011;5931;48.832;9.072;2023-08-20T09:26:04;8.40;;;6.53;;
11747;SDS011;5931;48.832;9.072;2023-08-20T09:28:40;10.07;;;6.97;;
11747;SDS011;5931;48.832;9.072;2023-08-20T09:31:07;9.93;;;7.53;;
11747;SDS011;5931;48.832;9.072;2023-08-20T09:33:33;9.60;;;7.77;;
11747;SDS011;5931;48.832;9.072;2023-08-20T09:35:58;8.93;;;6.40;;
11747;SDS011;5931;48.832;9.072;2023-08-20T09:38:24;8.27;;;6.13;;
11747;SDS011;5931;48.832;9.072;2023-08-20T09:40:51;8.48;;;6.65;;
11747;SDS011;5931;48.832;9.072;2023-08-20T09:43:18;10.90;;;6.97;;
11747;SDS011;5931;48.832;9.072;2023-08-20T09:45:46;8.57;;;7.30;;
11747;SDS011;5931;48.832;9.072;2023-08-20T09:48:13;7.67;;;6.80;;
11747;SDS011;5931;48.832;9.072;2023-08-20T09:50:44;8.40;;;6.73;;
11747;SDS011;5931;48.832;9.072;2023-08-20T09:53:17;7.10;;;6.40;;
11747;SDS011;5931;48.832;9.072;2023-08-20T09:56:01;7.00;;;6.10;;
11747;SDS011;5931;48.832;9.072;2023-08-20T09:58:34;11.50;;;6.80;;
11747;SDS011;5931;48.832;9.072;2023-08-20T10:01:04;7.90;;;6.13;;
11747;SDS011;5931;48.832;9.072;2023-08-20T10:03:32;8.67;;;6.87;;
11747;SDS011;5931;48.832;9.072;2023-08-20T10:05:58;11.37;;;6.17;;
11747;SDS011;5931;48.832;9.072;2023-08-20T10:08:26;8.47;;;6.73;;
11747;SDS011;5931;48.832;9.072;2023-08-20T10:10:53;8.10;;;6.50;;
11747;SDS011;5931;48.832;9.072;2023-08-20T10:13:18;8.07;;;6.40;;
11747;SDS011;5931;48.832;9.072;2023-08-20T10:15:44;7.30;;;6.50;;
11747;SDS011;5931;48.832;9.072;2023-08-20T10:18:11;9.03;;;6.77;;
11747;SDS011;5931;48.832;9.072;2023-08-20T10:20:38;11.10;;;6.57;;
11747;SDS011;5931;48.832;9.072;2023-08-20T10:23:05;7.53;;;6.13;;
11747;SDS011;5931;48.832;9.072;2023-08-20T10:25:32;7.23;;;5.77;;
11747;SDS011;5931;48.832;9.072;2023-08-20T10:28:13;11.30;;;6.60;;
11747;SDS011;5931;48.832;9.072;2023-08-20T10:33:35;8.37;;;5.73;;
11747;SDS011;5931;48.832;9.072;2023-08-20T10:36:17;9.23;;;6.90;;
11747;SDS011;5931;48.832;9.072;2023-08-20T10:38:48;8.07;;;6.20;;
11747;SDS011;5931;48.832;9.072;2023-08-20T10:41:15;6.43;;;5.73;;
11747;SDS011;5931;48.832;9.072;2023-08-20T10:43:47;6.73;;;5.50;;
11747;SDS011;5931;48.832;9.072;2023-08-20T10:46:23;8.60;;;5.30;;
11747;SDS011;5931;48.832;9.072;2023-08-20T10:48:54;9.47;;;6.60;;
11747;SDS011;5931;48.832;9.072;2023-08-20T10:51:24;7.90;;;5.90;;
11747;SDS011;5931;48.832;9.072;2023-08-20T10:56:26;6.70;;;5.90;;
11747;SDS011;5931;48.832;9.072;2023-08-20T10:59:13;6.50;;;5.23;;
11747;SDS011;5931;48.832;9.072;2023-08-20T11:01:42;6.50;;;5.50;;
11747;SDS011;5931;48.832;9.072;2023-08-20T11:04:16;6.37;;;5.73;;
11747;SDS011;5931;48.832;9.072;2023-08-20T11:06:44;9.10;;;5.57;;
11747;SDS011;5931;48.832;9.072;2023-08-20T11:09:11;7.30;;;6.20;;
11747;SDS011;5931;48.832;9.072;2023-08-20T11:11:37;7.73;;;5.83;;
11747;SDS011;5931;48.832;9.072;2023-08-20T11:14:11;6.83;;;5.93;;
11747;SDS011;5931;48.832;9.072;2023-08-20T11:16:41;5.80;;;5.20;;
11747;SDS011;5931;48.832;9.072;2023-08-20T11:19:11;5.10;;;4.60;;
11747;SDS011;5931;48.832;9.072;2023-08-20T11:21:40;7.07;;;5.33;;
11747;SDS011;5931;48.832;9.072;2023-08-20T11:24:07;7.27;;;5.00;;
11747;SDS011;5931;48.832;9.072;2023-08-20T11:26:34;5.40;;;4.83;;
11747;SDS011;5931;48.832;9.072;2023-08-20T11:29:00;5.70;;;4.90;;
11747;SDS011;5931;48.832;9.072;2023-08-20T11:31:30;6.10;;;4.80;;
11747;SDS011;5931;48.832;9.072;2023-08-20T11:33:56;6.13;;;4.73;;
11747;SDS011;5931;48.832;9.072;2023-08-20T11:36:22;4.80;;;4.33;;
11747;SDS011;5931;48.832;9.072;2023-08-20T11:38:52;6.07;;;5.47;;
11747;SDS011;5931;48.832;9.072;2023-08-20T11:41:19;9.90;;;5.20;;
11747;SDS011;5931;48.832;9.072;2023-08-20T11:43:48;8.30;;;5.80;;
11747;SDS011;5931;48.832;9.072;2023-08-20T11:46:15;6.30;;;5.30;;
11747;SDS011;5931;48.832;9.072;2023-08-20T11:52:04;6.97;;;5.77;;
11747;SDS011;5931;48.832;9.072;2023-08-20T11:54:22;9.03;;;5.67;;
11747;SDS011;5931;48.832;9.072;2023-08-20T11:56:51;6.50;;;5.90;;
11747;SDS011;5931;48.832;9.072;2023-08-20T11:59:18;9.43;;;5.17;;
11747;SDS011;5931;48.832;9.072;2023-08-20T12:01:51;6.20;;;5.60;;
11747;SDS011;5931;48.832;9.072;2023-08-20T12:04:17;5.67;;;5.03;;
11747;SDS011;5931;48.832;9.072;2023-08-20T12:06:43;6.27;;;5.13;;
11747;SDS011;5931;48.832;9.072;2023-08-20T12:09:20;7.13;;;5.80;;
11747;SDS011;5931;48.832;9.072;2023-08-20T12:11:49;6.63;;;5.73;;
11747;SDS011;5931;48.832;9.072;2023-08-20T12:14:16;5.50;;;4.80;;
11747;SDS011;5931;48.832;9.072;2023-08-20T12:16:43;6.47;;;4.87;;
11747;SDS011;5931;48.832;9.072;2023-08-20T12:19:08;5.63;;;5.03;;
11747;SDS011;5931;48.832;9.072;2023-08-20T12:21:34;5.80;;;5.30;;
11747;SDS011;5931;48.832;9.072;2023-08-20T12:24:00;7.20;;;5.60;;
11747;SDS011;5931;48.832;9.072;2023-08-20T12:26:25;9.03;;;5.60;;
11747;SDS011;5931;48.832;9.072;2023-08-20T12:28:51;6.20;;;5.30;;
11747;SDS011;5931;48.832;9.072;2023-08-20T12:31:17;5.90;;;5.20;;
11747;SDS011;5931;48.832;9.072;2023-08-20T12:33:43;6.80;;;5.03;;
11747;SDS011;5931;48.832;9.072;2023-08-20T12:36:08;6.33;;;5.70;;
11747;SDS011;5931;48.832;9.072;2023-08-20T12:38:34;7.80;;;5.60;;
11747;SDS011;5931;48.832;9.072;2023-08-20T12:41:00;6.80;;;5.73;;
11747;SDS011;5931;48.832;9.072;2023-08-20T12:43:26;5.73;;;5.20;;
11747;SDS011;5931;48.832;9.072;2023-08-20T12:45:52;5.57;;;5.00;;
11747;SDS011;5931;48.832;9.072;2023-08-20T12:48:18;6.43;;;5.67;;
11747;SDS011;5931;48.832;9.072;2023-08-20T12:50:43;7.00;;;5.60;;
11747;SDS011;5931;48.832;9.072;2023-08-20T12:53:09;6.07;;;5.40;;
11747;SDS011;5931;48.832;9.072;2023-08-20T12:55:35;6.73;;;5.10;;
11747;SDS011;5931;48.832;9.072;2023-08-20T12:58:00;7.43;;;5.97;;
11747;SDS011;5931;48.832;9.072;2023-08-20T13:00:26;6.93;;;5.40;;
11747;SDS011;5931;48.832;9.072;2023-08-20T13:02:55;5.80;;;5.30;;
11747;SDS011;5931;48.832;9.072;2023-08-20T13:05:22;9.13;;;5.60;;
11747;SDS011;5931;48.832;9.072;2023-08-20T13:07:49;8.90;;;5.70;;
11747;SDS011;5931;48.832;9.072;2023-08-20T13:10:15;6.10;;;5.40;;
11747;SDS011;5931;48.832;9.072;2023-08-20T13:12:41;4.97;;;4.50;;
11747;SDS011;5931;48.832;9.072;2023-08-20T13:15:08;6.33;;;5.17;;
11747;SDS011;5931;48.832;9.072;2023-08-20T13:17:35;6.07;;;5.20;;
11747;SDS011;5931;48.832;9.072;2023-08-20T13:20:03;6.20;;;5.57;;
11747;SDS011;5931;48.832;9.072;2023-08-20T13:22:30;6.50;;;4.70;;
11747;SDS011;5931;48.832;9.072;2023-08-20T13:24:56;5.80;;;4.63;;
11747;SDS011;5931;48.832;9.072;2023-08-20T13:27:21;6.30;;;4.70;;
11747;SDS011;5931;48.832;9.072;2023-08-20T13:29:47;10.43;;;5.00;;
11747;SDS011;5931;48.832;9.072;2023-08-20T13:32:13;6.23;;;5.23;;
11747;SDS011;5931;48.832;9.072;2023-08-20T13:34:38;7.07;;;5.33;;
11747;SDS011;5931;48.832;9.072;2023-08-20T13:37:04;7.90;;;6.20;;
11747;SDS011;5931;48.832;9.072;2023-08-20T13:39:29;6.30;;;5.23;;
11747;SDS011;5931;48.832;9.072;2023-08-20T13:41:55;7.40;;;5.40;;
11747;SDS011;5931;48.832;9.072;2023-08-20T13:44:21;6.00;;;4.50;;
11747;SDS011;5931;48.832;9.072;2023-08-20T13:46:46;7.90;;;4.93;;
11747;SDS011;5931;48.832;9.072;2023-08-20T13:49:12;5.20;;;4.67;;
11747;SDS011;5931;48.832;9.072;2023-08-20T13:51:38;8.83;;;5.30;;
11747;SDS011;5931;48.832;9.072;2023-08-20T13:54:03;4.50;;;4.10;;
11747;SDS011;5931;48.832;9.072;2023-08-20T13:56:29;5.97;;;4.77;;
11747;SDS011;5931;48.832;9.072;2023-08-20T13:58:55;4.63;;;4.23;;
11747;SDS011;5931;48.832;9.072;2023-08-20T14:01:20;4.70;;;4.20;;
11747;SDS011;5931;48.832;9.072;2023-08-20T14:03:46;5.27;;;4.77;;
11747;SDS011;5931;48.832;9.072;2023-08-20T14:06:12;8.30;;;4.70;;
11747;SDS011;5931;48.832;9.072;2023-08-20T14:08:37;6.40;;;5.20;;
11747;SDS011;5931;48.832;9.072;2023-08-20T14:11:03;6.53;;;5.07;;
11747;SDS011;5931;48.832;9.072;2023-08-20T14:13:28;5.47;;;4.37;;
11747;SDS011;5931;48.832;9.072;2023-08-20T14:15:54;5.37;;;4.80;;
11747;SDS011;5931;48.832;9.072;2023-08-20T14:18:20;8.60;;;5.03;;
11747;SDS011;5931;48.832;9.072;2023-08-20T14:20:46;7.10;;;4.67;;
11747;SDS011;5931;48.832;9.072;2023-08-20T14:23:11;4.30;;;3.90;;
11747;SDS011;5931;48.832;9.072;2023-08-20T14:25:37;4.50;;;4.10;;
11747;SDS011;5931;48.832;9.072;2023-08-20T14:28:05;4.83;;;4.33;;
11747;SDS011;5931;48.832;9.072;2023-08-20T14:30:35;6.20;;;4.87;;
11747;SDS011;5931;48.832;9.072;2023-08-20T14:33:02;7.50;;;4.90;;
11747;SDS011;5931;48.832;9.072;2023-08-20T14:35:29;5.43;;;4.93;;
11747;SDS011;5931;48.832;9.072;2023-08-20T14:37:55;4.63;;;4.00;;
11747;SDS011;5931;48.832;9.072;2023-08-20T14:40:21;5.30;;;4.40;;
11747;SDS011;5931;48.832;9.072;2023-08-20T14:42:47;4.90;;;4.40;;
11747;SDS011;5931;48.832;9.072;2023-08-20T14:45:12;6.43;;;4.30;;
11747;SDS011;5931;48.832;9.072;2023-08-20T14:47:38;5.90;;;4.40;;
11747;SDS011;5931;48.832;9.072;2023-08-20T14:50:05;6.20;;;4.00;;
11747;SDS011;5931;48.832;9.072;2023-08-20T14:52:31;4.70;;;4.20;;
11747;SDS011;5931;48.832;9.072;2023-08-20T14:54:57;6.13;;;4.30;;
11747;SDS011;5931;48.832;9.072;2023-08-20T14:57:23;4.13;;;3.73;;
11747;SDS011;5931;48.832;9.072;2023-08-20T14:59:50;5.77;;;5.00;;
11747;SDS011;5931;48.832;9.072;2023-08-20T15:02:16;5.20;;;4.13;;
11747;SDS011;5931;48.832;9.072;2023-08-20T15:04:42;5.90;;;4.00;;
11747;SDS011;5931;48.832;9.072;2023-08-20T15:07:08;5.30;;;4.10;;
11747;SDS011;5931;48.832;9.072;2023-08-20T15:09:33;4.80;;;3.97;;
11747;SDS011;5931;48.832;9.072;2023-08-20T15:11:59;10.13;;;4.70;;